createdAt,value
2019-05-07T00:00:44.059Z,41.5
2019-05-07T00:16:02.694Z,41.3
2019-05-07T00:31:13.054Z,41.9
2019-05-07T00:46:25.771Z,41.7
2019-05-07T01:01:27.719Z,43
2019-05-07T01:16:53.113Z,43.4
2019-05-07T01:32:03.431Z,43.2
2019-05-07T01:47:15.916Z,44.3
2019-05-07T02:02:28.424Z,45.7
2019-05-07T02:17:39.168Z,47.3
2019-05-07T02:32:54.380Z,46
2019-05-07T02:48:05.506Z,45.4
2019-05-07T03:03:17.950Z,47.4
2019-05-07T03:18:23.646Z,47.4
2019-05-07T03:33:48.061Z,50.3
2019-05-07T03:48:54.883Z,52.5
2019-05-07T04:04:07.335Z,54
2019-05-07T04:19:19.709Z,55.3
2019-05-07T04:34:33.960Z,54
2019-05-07T04:49:44.796Z,53.2
2019-05-07T05:04:57.808Z,52.2
2019-05-07T05:20:10.424Z,50.8
2019-05-07T05:35:19.357Z,50.5
2019-05-07T05:50:36.524Z,49.7
2019-05-07T06:05:49.735Z,48.2
2019-05-07T06:21:03.292Z,45.2
2019-05-07T06:36:06.777Z,43
2019-05-07T06:51:33.018Z,39.4
2019-05-07T07:06:44.393Z,38.3
2019-05-07T07:21:58.341Z,38.2
2019-05-07T07:37:15.953Z,38
2019-05-07T07:52:27.367Z,35.8
2019-05-07T08:07:42.861Z,35.4
2019-05-07T08:22:54.855Z,39
2019-05-07T08:38:08.811Z,39.8
2019-05-07T08:53:18.391Z,37.8
2019-05-07T09:08:37.531Z,34.5
2019-05-07T09:23:52.550Z,35
2019-05-07T09:39:06.821Z,35.5
2019-05-07T09:54:13.014Z,37.2
2019-05-07T10:09:35.977Z,36.5
2019-05-07T10:24:52.495Z,35.2
2019-05-07T10:40:06.105Z,34.1
2019-05-07T10:55:22.574Z,33.2
2019-05-07T11:10:35.595Z,34
2019-05-07T11:25:52.944Z,31.4
2019-05-07T11:41:07.455Z,30.3
2019-05-07T11:56:23.370Z,27.9
2019-05-07T12:11:32.450Z,26.9
2019-05-07T12:26:55.663Z,25.3
2019-05-07T12:42:12.372Z,23.6
2019-05-07T12:57:28.902Z,22.2
2019-05-07T13:12:45.832Z,19.9
2019-05-07T13:27:57.174Z,17.5
2019-05-07T13:43:23.288Z,18.6
2019-05-07T13:58:38.094Z,19.2
2019-05-07T14:13:55.768Z,16.1
2019-05-07T14:29:13.378Z,15.6
2019-05-07T14:44:26.625Z,16.2
2019-05-07T14:59:48.479Z,16.6
2019-05-07T15:15:05.487Z,16.7
2019-05-07T15:30:23.201Z,15.2
2019-05-07T15:45:25.313Z,15.4
2019-05-07T16:00:55.127Z,17.1
2019-05-07T16:16:13.756Z,18
2019-05-07T16:31:29.922Z,18.6
2019-05-07T16:46:45.770Z,19.5
2019-05-07T17:01:52.339Z,20.7
2019-05-07T17:17:16.623Z,21.8
2019-05-07T17:32:32.404Z,24.1
2019-05-07T17:47:47.199Z,27.9
2019-05-07T18:03:02.841Z,29.4
2019-05-07T18:18:15.022Z,31.4
2019-05-07T18:33:33.879Z,32
2019-05-07T18:48:46.784Z,33
2019-05-07T19:04:02.368Z,34.6
2019-05-07T19:19:08.317Z,37.9
2019-05-07T19:34:32.756Z,38.5
2019-05-07T19:49:45.112Z,39.3
2019-05-07T20:04:59.432Z,39.7
2019-05-07T20:20:13.827Z,40.8
2019-05-07T20:35:27.852Z,41.6
2019-05-07T20:50:42.710Z,41.4
2019-05-07T21:05:57.163Z,40
2019-05-07T21:21:12.806Z,42
2019-05-07T21:36:18.852Z,43.1
2019-05-07T21:51:40.131Z,44.6
2019-05-07T22:06:54.299Z,45.5
2019-05-07T22:22:08.311Z,47.8
2019-05-07T22:37:22.329Z,48.9
2019-05-07T22:52:36.140Z,50.5
2019-05-07T23:07:49.934Z,51.8
2019-05-07T23:23:03.738Z,52.9
2019-05-07T23:38:17.270Z,53.6
2019-05-07T23:53:25.154Z,53.7
